createdAt,value
2022-10-20T00:02:51.491Z,8.00
2022-10-20T00:07:54.155Z,8.00
2022-10-20T00:12:58.168Z,8.00
2022-10-20T00:18:00.846Z,6.60
2022-10-20T00:23:03.506Z,8.00
2022-10-20T00:28:07.556Z,7.00
2022-10-20T00:33:10.224Z,8.40
2022-10-20T00:38:12.940Z,7.20
2022-10-20T00:43:17.228Z,6.20
2022-10-20T00:48:20.650Z,7.00
2022-10-20T00:53:23.731Z,6.00
2022-10-20T00:58:27.748Z,7.40
2022-10-20T01:03:33.644Z,7.00
2022-10-20T01:08:36.718Z,7.20
2022-10-20T01:13:45.766Z,7.00
2022-10-20T01:18:50.897Z,6.80
2022-10-20T01:24:19.665Z,7.20
2022-10-20T01:29:25.068Z,5.80
2022-10-20T01:34:31.568Z,6.60
2022-10-20T01:39:37.089Z,7.00
2022-10-20T01:44:41.088Z,7.00
2022-10-20T01:49:43.945Z,7.00
2022-10-20T01:54:46.705Z,7.00
2022-10-20T01:59:56.641Z,6.00
2022-10-20T02:05:20.627Z,6.60
2022-10-20T02:10:24.804Z,6.00
2022-10-20T02:15:28.978Z,5.40
2022-10-20T02:20:31.954Z,6.00
2022-10-20T02:25:34.605Z,6.00
2022-10-20T02:30:38.588Z,6.00
2022-10-20T02:35:43.275Z,6.60
2022-10-20T02:40:45.991Z,6.60
2022-10-20T02:45:49.993Z,5.00
2022-10-20T02:50:53.049Z,5.20
2022-10-20T02:55:55.758Z,6.20
2022-10-20T03:00:59.788Z,6.20
2022-10-20T03:06:08.662Z,6.40
2022-10-20T03:11:11.331Z,5.00
2022-10-20T03:16:15.332Z,4.20
2022-10-20T03:21:18.118Z,5.60
2022-10-20T03:26:20.842Z,3.40
2022-10-20T03:31:25.147Z,6.00
2022-10-20T03:36:27.866Z,5.00
2022-10-20T03:41:30.549Z,5.00
2022-10-20T03:46:34.632Z,6.20
2022-10-20T03:51:37.376Z,5.00
2022-10-20T03:56:40.153Z,4.20
2022-10-20T04:01:45.500Z,5.20
2022-10-20T04:06:48.510Z,5.00
2022-10-20T04:11:51.173Z,6.00
2022-10-20T04:16:55.221Z,5.00
2022-10-20T04:21:57.864Z,5.20
2022-10-20T04:27:00.495Z,5.00
2022-10-20T04:32:04.702Z,5.60
2022-10-20T04:37:07.320Z,3.00
2022-10-20T04:42:10.000Z,5.00
2022-10-20T04:47:14.014Z,5.40
2022-10-20T04:52:17.214Z,3.00
2022-10-20T04:57:20.286Z,3.80
2022-10-20T05:02:24.730Z,5.00
2022-10-20T05:07:30.062Z,5.00
2022-10-20T05:12:32.732Z,5.00
2022-10-20T05:17:36.798Z,3.00
2022-10-20T05:22:39.790Z,3.00
2022-10-20T05:27:42.592Z,3.00
2022-10-20T05:32:46.724Z,3.00
2022-10-20T05:37:49.370Z,3.00
2022-10-20T05:42:52.125Z,3.00
2022-10-20T05:47:56.226Z,5.00
2022-10-20T05:52:59.177Z,3.00
2022-10-20T05:58:01.865Z,4.60
2022-10-20T06:03:05.879Z,3.00
2022-10-20T06:08:08.585Z,3.00
2022-10-20T06:13:12.718Z,2.60
2022-10-20T06:18:16.848Z,2.80
2022-10-20T06:23:19.609Z,3.40
2022-10-20T06:28:22.263Z,3.40
2022-10-20T06:33:26.361Z,3.00
2022-10-20T06:38:29.115Z,3.00
2022-10-20T06:43:31.812Z,2.80
2022-10-20T06:48:36.135Z,3.00
2022-10-20T06:53:42.603Z,4.60
2022-10-20T06:58:49.301Z,4.20
2022-10-20T07:03:54.215Z,3.00
2022-10-20T07:08:57.323Z,3.00
2022-10-20T07:14:00.363Z,3.00
2022-10-20T07:19:04.562Z,7.40
2022-10-20T07:24:07.904Z,13.20
2022-10-20T07:29:11.480Z,15.20
2022-10-20T07:34:26.191Z,13.60
2022-10-20T07:39:30.117Z,9.60
2022-10-20T07:44:32.820Z,9.00
2022-10-20T07:49:44.830Z,6.40
2022-10-20T07:54:48.008Z,6.00
2022-10-20T07:59:50.652Z,5.60
2022-10-20T08:04:55.071Z,5.40
2022-10-20T08:09:57.763Z,5.00
2022-10-20T08:15:00.430Z,5.20
2022-10-20T08:20:13.885Z,5.00
2022-10-20T08:25:16.562Z,5.00
2022-10-20T08:30:23.908Z,5.00
2022-10-20T08:35:28.602Z,5.20
2022-10-20T08:40:31.419Z,5.00
2022-10-20T08:45:38.198Z,5.20
2022-10-20T08:50:43.584Z,3.80
2022-10-20T08:55:46.264Z,5.80
2022-10-20T09:00:48.986Z,5.00
2022-10-20T09:05:56.558Z,5.40
2022-10-20T09:10:59.636Z,6.00
2022-10-20T09:16:03.945Z,5.00
2022-10-20T09:21:09.774Z,5.20
2022-10-20T09:26:24.831Z,5.00
2022-10-20T09:31:37.581Z,3.00
2022-10-20T09:36:41.642Z,5.00
2022-10-20T09:41:44.275Z,5.00
2022-10-20T09:46:48.683Z,5.40
2022-10-20T09:57:05.867Z,6.00
2022-10-20T10:02:41.234Z,4.20
2022-10-20T10:07:45.265Z,3.00
2022-10-20T10:12:52.210Z,5.80
2022-10-20T10:17:54.891Z,5.00
2022-10-20T10:23:10.268Z,5.00
2022-10-20T10:28:22.347Z,3.00
2022-10-20T10:33:26.728Z,5.00
2022-10-20T10:38:30.783Z,3.40
2022-10-20T10:43:34.697Z,6.60
2022-10-20T10:48:56.689Z,5.20
2022-10-20T10:54:11.634Z,4.60
2022-10-20T10:59:19.861Z,5.00
2022-10-20T11:04:34.515Z,5.00
2022-10-20T11:09:41.204Z,12.40
2022-10-20T11:14:47.571Z,10.40
2022-10-20T11:19:57.951Z,6.40
2022-10-20T11:25:04.086Z,6.00
2022-10-20T11:30:15.796Z,6.00
2022-10-20T11:35:24.169Z,6.00
2022-10-20T11:40:29.122Z,5.00
2022-10-20T11:45:39.353Z,5.60
2022-10-20T11:50:43.313Z,6.00
2022-10-20T11:56:09.896Z,6.20
2022-10-20T12:01:26.984Z,6.00
2022-10-20T12:06:39.838Z,6.00
2022-10-20T12:11:49.976Z,6.00
2022-10-20T12:17:27.227Z,6.60
2022-10-20T12:22:41.675Z,5.80
2022-10-20T12:27:45.868Z,7.40
2022-10-20T12:33:01.113Z,4.20
2022-10-20T12:38:04.626Z,6.00
2022-10-20T12:43:28.139Z,7.00
2022-10-20T12:48:30.943Z,6.40
2022-10-20T12:53:33.777Z,5.80
2022-10-20T12:58:38.192Z,7.00
2022-10-20T13:03:46.782Z,6.00
2022-10-20T13:09:22.951Z,4.20
2022-10-20T13:14:35.534Z,6.00
2022-10-20T13:19:39.684Z,5.40
2022-10-20T13:24:44.904Z,3.80
2022-10-20T13:29:49.165Z,4.20
2022-10-20T13:34:53.323Z,4.00
2022-10-20T13:40:01.588Z,6.40
2022-10-20T13:45:08.910Z,6.00
2022-10-20T13:50:12.990Z,4.80
2022-10-20T13:55:17.999Z,4.40
2022-10-20T14:00:24.730Z,4.00
2022-10-20T14:05:28.082Z,5.20
2022-10-20T14:10:40.230Z,6.00
2022-10-20T14:15:46.937Z,6.00
2022-10-20T14:20:55.751Z,5.60
2022-10-20T14:25:58.456Z,4.00
2022-10-20T14:31:02.479Z,4.00
2022-10-20T14:36:06.273Z,3.40
2022-10-20T14:41:08.933Z,3.00
2022-10-20T14:46:13.886Z,4.00
2022-10-20T14:51:29.779Z,4.40
2022-10-20T14:56:32.398Z,5.40
2022-10-20T15:01:36.372Z,4.40
2022-10-20T15:06:39.024Z,4.20
2022-10-20T15:11:44.982Z,4.00
2022-10-20T15:16:52.180Z,5.00
2022-10-20T15:21:58.918Z,6.00
2022-10-20T15:27:02.892Z,6.00
2022-10-20T15:32:07.153Z,4.80
2022-10-20T15:37:10.208Z,5.00
2022-10-20T15:42:12.886Z,5.20
2022-10-20T15:47:17.004Z,5.40
2022-10-20T15:52:19.689Z,7.60
2022-10-20T15:57:22.353Z,6.00
2022-10-20T16:02:26.415Z,5.60
2022-10-20T16:07:29.570Z,7.40
2022-10-20T16:12:32.519Z,9.20
2022-10-20T16:17:36.696Z,11.00
2022-10-20T16:22:39.744Z,11.20
2022-10-20T16:27:42.641Z,10.80
2022-10-20T16:32:46.784Z,10.60
2022-10-20T16:37:49.589Z,10.80
2022-10-20T16:42:52.325Z,10.60
2022-10-20T16:47:56.350Z,8.20
2022-10-20T16:52:59.103Z,9.60
2022-10-20T16:58:01.910Z,8.00
2022-10-20T17:03:06.094Z,11.00
2022-10-20T17:08:08.773Z,10.20
2022-10-20T17:13:11.576Z,7.00
2022-10-20T17:18:15.835Z,7.80
2022-10-20T17:23:18.612Z,11.20
2022-10-20T17:28:21.490Z,10.00
2022-10-20T17:33:27.082Z,10.40
2022-10-20T17:38:29.891Z,11.20
2022-10-20T17:43:32.832Z,11.00
2022-10-20T17:48:37.455Z,10.40
2022-10-20T17:53:41.434Z,11.00
2022-10-20T17:58:44.789Z,10.00
2022-10-20T18:03:49.831Z,9.40
2022-10-20T18:08:54.074Z,11.00
2022-10-20T18:13:57.603Z,10.80
2022-10-20T18:19:01.902Z,11.00
2022-10-20T18:24:05.866Z,8.40
2022-10-20T18:29:09.572Z,9.80
2022-10-20T18:34:14.745Z,10.00
2022-10-20T18:39:17.653Z,9.20
2022-10-20T18:44:20.539Z,12.00
2022-10-20T18:49:25.486Z,9.00
2022-10-20T18:54:28.260Z,12.00
2022-10-20T18:59:31.015Z,11.60
2022-10-20T19:04:35.101Z,11.20
2022-10-20T19:09:37.923Z,8.80
2022-10-20T19:14:40.763Z,9.00
2022-10-20T19:19:46.511Z,11.60
2022-10-20T19:24:49.394Z,12.20
2022-10-20T19:29:52.470Z,10.60
2022-10-20T19:34:56.782Z,11.80
2022-10-20T19:39:59.677Z,10.60
2022-10-20T19:45:02.627Z,10.20
2022-10-20T19:50:07.587Z,11.20
2022-10-20T19:55:10.392Z,12.00
2022-10-20T20:00:13.901Z,13.00
2022-10-20T20:05:18.082Z,11.80
2022-10-20T20:10:20.882Z,11.20
2022-10-20T20:15:23.531Z,13.60
2022-10-20T20:20:27.548Z,11.60
2022-10-20T20:25:30.172Z,11.80
2022-10-20T20:30:33.228Z,11.40
2022-10-20T20:35:37.368Z,11.20
2022-10-20T20:40:44.233Z,12.00
2022-10-20T20:45:46.909Z,12.00
2022-10-20T20:50:54.470Z,11.40
2022-10-20T20:55:57.787Z,11.00
2022-10-20T21:01:03.770Z,12.00
2022-10-20T21:06:08.775Z,11.00
2022-10-20T21:11:12.349Z,11.80
2022-10-20T21:16:16.044Z,11.40
2022-10-20T21:21:20.928Z,11.40
2022-10-20T21:26:23.736Z,9.00
2022-10-20T21:31:27.193Z,9.80
2022-10-20T21:36:32.390Z,11.60
2022-10-20T21:41:36.447Z,9.00
2022-10-20T21:46:41.874Z,10.60
2022-10-20T21:51:47.726Z,8.60
2022-10-20T21:56:50.459Z,9.00
2022-10-20T22:01:53.740Z,9.00
2022-10-20T22:06:59.147Z,10.60
2022-10-20T22:12:01.803Z,10.20
2022-10-20T22:17:04.464Z,9.00
2022-10-20T22:22:08.620Z,9.20
2022-10-20T22:27:20.016Z,9.00
2022-10-20T22:32:33.934Z,10.80
2022-10-20T22:37:38.078Z,8.80
2022-10-20T22:42:40.963Z,9.80
2022-10-20T22:47:43.916Z,8.60
2022-10-20T22:52:47.971Z,11.00
2022-10-20T22:57:50.883Z,9.00
2022-10-20T23:02:53.729Z,8.20
2022-10-20T23:07:57.734Z,8.80
2022-10-20T23:13:00.398Z,8.80
2022-10-20T23:18:03.028Z,8.00
2022-10-20T23:23:07.050Z,8.00
2022-10-20T23:28:09.939Z,9.80
2022-10-20T23:33:12.788Z,8.20
2022-10-20T23:38:16.792Z,8.40
2022-10-20T23:43:19.476Z,8.60
2022-10-20T23:48:22.132Z,9.00
2022-10-20T23:53:26.452Z,8.60
2022-10-20T23:58:29.087Z,9.00
